Aviation Digital Data Service (ADDS)

Output produced by METARs form (1617 UTC 25 April 2018)
found at http://aviationweather.gov/adds/metars/
 
KSEG 251553Z AUTO 34004KT 10SM OVC009 14/12 A2980 RMK AO2 RAE1456 CIG 006V013 SLP090 P0000 T01390117
KSEG 251453Z AUTO 33004KT 4SM -RA BR OVC006 13/12 A2981 RMK AO2 RAB21 CIG 004V009 SLP096 P0001 60001 T01280117 56010
KSEG 251432Z AUTO 33004KT 2 1/2SM -RA BR OVC006 12/11 A2982 RMK AO2 RAB21 CIG 004V009 P0000 T01220111
KSEG 251353Z AUTO 33004KT 9SM OVC007 12/11 A2983 RMK AO2 SLP102 T01220106
KSEG 251253Z AUTO 34004KT 10SM BKN006 OVC018 12/11 A2985 RMK AO2 RAE13 SLP107 P0000 T01170106
KSEG 251215Z AUTO 33004KT 5SM BR BKN007 OVC018 11/10 A2986 RMK AO2 RAE13 P0000 T01110100
KSEG 251153Z AUTO 34004KT 4SM -RA BR FEW007 OVC017 11/10 A2986 RMK AO2 RAB06E26B46 SLP112 P0002 60013 70029 T01060100 10106 20100 56013
KSEG 251128Z AUTO 34004KT 7SM FEW007 OVC017 11/10 A2987 RMK AO2 RAB06E26 P0001 T01060100
KSEG 251053Z AUTO 34005KT 4SM BR OVC007 11/09 A2988 RMK AO2 SLP117 T01060094
KSEG 251045Z AUTO 33004KT 2 1/2SM BR OVC007 10/09 A2988 RMK AO2 T01000094
KSEG 250953Z AUTO 33004KT 6SM BR OVC007 10/09 A2988 RMK AO2 SLP119 T01000094
KSEG 250853Z AUTO 02003KT 3SM BR BKN008 OVC017 10/09 A2990 RMK AO2 RAE32 SLP125 P0004 60011 T01000094 58020
KSEG 250821Z AUTO 03004KT 3SM -RA BR BKN007 OVC014 10/09 A2992 RMK AO2 P0003 T01000094
KSEG 250753Z AUTO 02005KT 2 1/2SM -RA BR OVC007 10/09 A2993 RMK AO2 CIG 005V010 SLP136 P0004 T01000089
KSEG 250653Z AUTO 04006KT 5SM -RA BR OVC009 10/09 A2996 RMK AO2 SLP144 P0003 T01000089
KSEG 250649Z AUTO 04006KT 4SM -RA BR OVC009 10/09 A2996 RMK AO2 P0003
KSEG 250632Z AUTO 36005KT 7SM -RA BKN010 BKN018 OVC041 10/09 A2998 RMK AO2 P0002 T01000089
KSEG 250553Z AUTO 05006KT 5SM -RA BR FEW007 FEW017 OVC044 10/09 A3000 RMK AO2 SLP158 P0006 60016 T01000089 10133 20100 58034
KSEG 250533Z AUTO 06005KT 4SM -RA BR FEW008 BKN027 OVC035 10/09 A3002 RMK AO2 P0005 T01000089
KSEG 250526Z AUTO 04004KT 4SM -RA BR FEW008 SCT021 OVC038 10/09 A3002 RMK AO2 P0005 T01000089
KSEG 250453Z AUTO 05005KT 9SM -RA BKN020 BKN046 OVC055 11/09 A3004 RMK AO2 SLP173 P0002 T01060089 401720033
KSEG 250353Z AUTO 08004KT 9SM -RA BKN021 BKN028 OVC033 11/09 A3007 RMK AO2 SLP184 P0004 T01060094
KSEG 250339Z AUTO 09004KT 7SM -RA SCT022 BKN026 OVC033 11/09 A3008 RMK AO2 P0003 T01110089
KSEG 250253Z AUTO 07004KT 10SM -RA BKN041 OVC050 11/09 A3010 RMK AO2 SLP193 P0002 60004 T01110089 58005
KSEG 250153Z AUTO 09003KT 10SM -RA BKN050 OVC075 12/09 A3011 RMK AO2 SLP198 P0002 T01170089
KSEG 250053Z AUTO 11006KT 10SM -RA SCT044 OVC060 13/08 A3011 RMK AO2 RAE03B22 SLP198 P0000 T01330078
KSEG 242353Z AUTO 14010KT 10SM -RA FEW049 OVC065 14/06 A3011 RMK AO2 RAB13E26B49 SLP198 P0000 60000 T01440061 10172 20139 56010
KSEG 242253Z AUTO 13008KT 10SM SCT065 OVC100 15/06 A3012 RMK AO2 SLP199 T01500056
KSEG 242153Z AUTO 13014G18KT 10SM BKN055 16/05 A3013 RMK AO2 SLP203 T01560050
KSEG 242053Z AUTO 15010KT 10SM FEW055 16/06 A3014 RMK AO2 SLP209 T01610056 56022
KSEG 241953Z AUTO 16009G21KT 10SM BKN060 16/06 A3016 RMK AO2 SLP214 T01610056
KSEG 241853Z AUTO 16017G21KT 10SM FEW060 17/06 A3019 RMK AO2 SLP221 T01670056
KSEG 241753Z AUTO 16013G18KT 10SM FEW055 17/06 A3021 RMK AO2 SLP230 T01720061 10172 20089 58027
KSEG 241653Z AUTO 15015G22KT 10SM SCT049 16/07 A3024 RMK AO2 SLP241 T01610067
KSEG 241553Z AUTO 16011G17KT 10SM BKN047 16/06 A3027 RMK AO2 SLP249 T01560061
KSEG 241453Z AUTO 16005KT 10SM FEW045 SCT050 14/05 A3029 RMK AO2 SLP257 T01440050 58013
KSEG 241353Z AUTO VRB03KT 10SM BKN048 13/03 A3031 RMK AO2 SLP264 T01280033
KSEG 241253Z AUTO 14005KT 10SM CLR 12/02 A3032 RMK AO2 SLP268 T01170022
KSEG 241153Z AUTO 00000KT 10SM CLR 08/04 A3033 RMK AO2 SLP272 T00830039 10111 20033 56001
KSEG 241053Z AUTO 00000KT 10SM CLR 06/03 A3033 RMK AO2 SLP272 T00610028
KSEG 240953Z AUTO 34004KT 10SM CLR 04/02 A3033 RMK AO2 SLP271 T00440017
KSEG 240853Z AUTO 00000KT 10SM CLR 03/02 A3033 RMK AO2 SLP273 T00330017 55001
KSEG 240753Z AUTO 30004KT 10SM CLR 06/01 A3033 RMK AO2 SLP271 T00610011
KSEG 240653Z AUTO 21004KT 10SM CLR 11/M01 A3033 RMK AO2 SLP272 T01111011
KSEG 240553Z AUTO 18005KT 10SM CLR 11/02 A3034 RMK AO2 SLP273 T01110017 10156 20111 55002
KSEG 240453Z AUTO 20004KT 10SM CLR 13/03 A3034 RMK AO2 SLP273 T01280028 402001011